Airfield :
LOGIN :

Register | Disclaimer

   EN    FR    IT 

 










Legend :    VFR   Marginal VFR   IFR   Intensive IFR   Very Intensive IFR
Visi :
Ceiling :
>= 8 km
>= 3000ft
5 to 8 km
1000 to 3000 ft
1500m to 5 km
500 to 1000 ft
800 to 1500m
200 to 500 ft
< 800m
< 200 ft
Symbols :   Thunderstorms  Fog  Heavy snow  Heavy precipitations  Wind > 20 kt
SIGMETs :     Misc.  Thunderstorms  Icing  Turbulence  Mountain Waves  Volcanic Ashes






- Airport Elevation : 14 ft
- IATA code : BRE


EDDW - Bremen Neuenland

CURRENT METAR :
  • 240920Z 25012KT 9999 BKN014 SCT045 16/14 Q1013 BECMG SCT014

EXPIRED METARs :
  • 240850Z 26014KT 220V280 9999 SCT014 BKN042 16/14 Q1014 TEMPO BKN014
  • 240820Z 26010KT 220V280 9999 FEW013 BKN037 16/14 Q1014 NOSIG
  • 240750Z 25008KT 9999 FEW013 BKN034 15/13 Q1014 NOSIG
  • 240720Z 25008KT 9999 FEW018 BKN042 15/13 Q1014 NOSIG
  • 240650Z 24008KT 9999 FEW018 BKN039 14/13 Q1014 NOSIG

TAF TAF EDDW
Valid from the 24 at 06:00 until the 25 at 06:00 UTC


240500Z 2406/2506 24007KT 9999 SCT030
BECMG 2407/2409 25012KT
TEMPO 2407/2409 BKN009
TEMPO 2409/2414 25015G25KT BKN013
BECMG 2418/2420 24007KT
BECMG 2423/2502 BKN013
PROB40
TEMPO 2502/2506 BKN008



MET'MAP, your aeronautical weather chart ! - Copyright ORBIFLY December 2007 - Disclaimer

ORBIFLY MET'MAP TEAM :

Programming & Development : Alexandra Zaïnal
Concept & original design : Baudouin d'Aumeries
Assistance for programming : Marc-Olivier Méhu
Technical & hardware support : Manuel Goepfert

Contact : metmap@orbifly.com




SOURCES & CREDITS :

   NOAA